createdAt,value
2022-09-01T00:00:34.944Z,99073.44
2022-09-01T00:03:37.787Z,99068.03
2022-09-01T00:06:41.390Z,99068.97
2022-09-01T00:09:44.201Z,99077.72
2022-09-01T00:12:48.628Z,99082.88
2022-09-01T00:15:51.506Z,99088.22
2022-09-01T00:18:54.933Z,99087.75
2022-09-01T00:21:57.880Z,99087.34
2022-09-01T00:25:01.346Z,99101.66
2022-09-01T00:28:05.659Z,99094.06
2022-09-01T00:31:08.971Z,99100.53
2022-09-01T00:34:12.064Z,99098.25
2022-09-01T00:37:14.931Z,99105.56
2022-09-01T00:40:18.168Z,99100.09
2022-09-01T00:43:24.422Z,99095.03
2022-09-01T00:46:29.046Z,99096.00
2022-09-01T00:49:35.197Z,99098.41
2022-09-01T00:52:40.677Z,99091.25
2022-09-01T00:55:43.641Z,99095.59
2022-09-01T00:58:47.821Z,99093.91
2022-09-01T01:01:50.838Z,99103.91
2022-09-01T01:04:56.183Z,99092.25
2022-09-01T01:08:00.212Z,99095.34
2022-09-01T01:11:03.577Z,99103.59
2022-09-01T01:14:12.261Z,99101.38
2022-09-01T01:17:15.156Z,99092.09
2022-09-01T01:20:35.902Z,99085.81
2022-09-01T01:23:41.819Z,99094.84
2022-09-01T01:26:47.524Z,99088.09
2022-09-01T01:29:50.337Z,99087.78
2022-09-01T01:32:53.185Z,99090.69
2022-09-01T01:35:57.708Z,99079.09
2022-09-01T01:39:02.108Z,99092.16
2022-09-01T01:42:09.377Z,99081.53
2022-09-01T01:45:13.277Z,99083.22
2022-09-01T01:48:22.922Z,99083.81
2022-09-01T01:51:28.541Z,99080.78
2022-09-01T01:54:32.683Z,99094.91
2022-09-01T01:57:37.476Z,99088.50
2022-09-01T02:00:42.986Z,99103.81
2022-09-01T02:03:45.775Z,99103.03
2022-09-01T02:06:49.021Z,99096.63
2022-09-01T02:09:52.243Z,99098.31
2022-09-01T02:13:04.822Z,99099.41
2022-09-01T02:16:12.203Z,99096.50
2022-09-01T02:19:15.231Z,99099.19
2022-09-01T02:22:19.883Z,99108.56
2022-09-01T02:25:23.538Z,99116.09
2022-09-01T02:28:28.681Z,99109.25
2022-09-01T02:31:32.196Z,99117.91
2022-09-01T02:34:35.028Z,99124.53
2022-09-01T02:37:39.457Z,99119.06
2022-09-01T02:40:45.591Z,99121.41
2022-09-01T02:43:49.828Z,99120.03
2022-09-01T02:46:53.372Z,99126.03
2022-09-01T02:49:56.122Z,99121.72
2022-09-01T02:53:03.335Z,99119.88
2022-09-01T02:56:09.716Z,99126.19
2022-09-01T02:59:15.478Z,99122.13
2022-09-01T03:02:18.252Z,99128.88
2022-09-01T03:05:25.449Z,99131.91
2022-09-01T03:08:28.196Z,99138.63
2022-09-01T03:11:32.064Z,99137.16
2022-09-01T03:14:36.331Z,99137.28
2022-09-01T03:17:39.141Z,99129.38
2022-09-01T03:20:44.753Z,99138.81
2022-09-01T03:23:48.326Z,99136.78
2022-09-01T03:26:51.598Z,99140.00
2022-09-01T03:29:55.742Z,99128.28
2022-09-01T03:32:58.807Z,99138.34
2022-09-01T03:36:01.616Z,99134.78
2022-09-01T03:39:05.535Z,99136.41
2022-09-01T03:42:11.175Z,99145.41
2022-09-01T03:45:16.383Z,99139.50
2022-09-01T03:48:19.628Z,99142.19
2022-09-01T03:51:23.374Z,99141.03
2022-09-01T03:54:27.987Z,99155.44
2022-09-01T03:57:32.524Z,99148.56
2022-09-01T04:00:39.053Z,99147.72
2022-09-01T04:03:45.006Z,99154.53
2022-09-01T04:06:48.244Z,99152.88
2022-09-01T04:09:52.605Z,99159.41
2022-09-01T04:12:56.576Z,99161.69
2022-09-01T04:16:00.879Z,99161.25
2022-09-01T04:19:09.372Z,99158.63
2022-09-01T04:22:14.426Z,99158.34
2022-09-01T04:25:28.551Z,99152.50
2022-09-01T04:28:34.071Z,99159.34
2022-09-01T04:31:40.267Z,99157.78
2022-09-01T04:34:43.210Z,99163.25
2022-09-01T04:37:48.604Z,99161.03
2022-09-01T04:40:51.827Z,99165.75
2022-09-01T04:43:56.567Z,99165.34
2022-09-01T04:47:00.720Z,99162.09
2022-09-01T04:50:04.477Z,99167.13
2022-09-01T04:53:07.852Z,99161.72
2022-09-01T04:56:10.891Z,99164.84
2022-09-01T04:59:14.972Z,99157.22
2022-09-01T05:02:19.496Z,99161.81
2022-09-01T05:05:23.039Z,99163.50
2022-09-01T05:08:26.326Z,99158.66
2022-09-01T05:11:29.372Z,99160.84
2022-09-01T05:14:32.920Z,99164.09
2022-09-01T05:17:37.840Z,99158.00
2022-09-01T05:20:42.739Z,99158.78
2022-09-01T05:23:47.141Z,99153.03
2022-09-01T05:26:50.968Z,99157.59
2022-09-01T05:29:54.234Z,99152.09
2022-09-01T05:32:58.399Z,99156.13
2022-09-01T05:36:02.117Z,99159.56
2022-09-01T05:39:06.047Z,99160.25
2022-09-01T05:42:09.215Z,99167.47
2022-09-01T05:45:12.933Z,99162.91
2022-09-01T05:48:23.756Z,99168.69
2022-09-01T05:51:43.787Z,99168.84
2022-09-01T05:54:48.146Z,99166.69
2022-09-01T05:57:52.809Z,99167.16
2022-09-01T06:00:59.312Z,99165.44
2022-09-01T06:04:05.838Z,99163.88
2022-09-01T06:07:11.881Z,99169.47
2022-09-01T06:10:16.529Z,99167.38
2022-09-01T06:13:21.963Z,99166.50
2022-09-01T06:16:30.964Z,99182.50
2022-09-01T06:19:37.321Z,99168.97
2022-09-01T06:22:41.239Z,99167.94
2022-09-01T06:25:46.960Z,99168.34
2022-09-01T06:28:54.519Z,99170.59
2022-09-01T06:31:59.040Z,99163.34
2022-09-01T06:35:05.751Z,99169.69
2022-09-01T06:38:09.363Z,99175.22
2022-09-01T06:41:13.164Z,99175.50
2022-09-01T06:44:16.192Z,99180.13
2022-09-01T06:47:19.580Z,99173.53
2022-09-01T06:53:50.154Z,99178.22
2022-09-01T06:56:53.574Z,99185.34
2022-09-01T06:59:56.598Z,99184.59
2022-09-01T07:02:59.832Z,99182.19
2022-09-01T07:06:07.011Z,99187.72
2022-09-01T07:09:20.061Z,99193.59
2022-09-01T07:12:25.980Z,99184.53
2022-09-01T07:19:01.070Z,99186.69
2022-09-01T07:22:07.381Z,99182.81
2022-09-01T07:25:12.968Z,99188.25
2022-09-01T07:28:17.440Z,99189.78
2022-09-01T07:34:50.025Z,99187.69
2022-09-01T07:44:44.231Z,99180.03
2022-09-01T07:47:54.521Z,99170.97
2022-09-01T07:54:24.110Z,99167.31
2022-09-01T07:57:27.148Z,99166.81
2022-09-01T08:00:31.830Z,99157.06
2022-09-01T08:03:34.853Z,99147.56
2022-09-01T08:06:39.210Z,99158.69
2022-09-01T08:09:44.754Z,99155.97
2022-09-01T08:12:56.337Z,99151.69
2022-09-01T08:16:17.094Z,99148.25
2022-09-01T08:19:23.161Z,99142.56
2022-09-01T08:22:26.049Z,99139.94
2022-09-01T08:25:30.252Z,99148.09
2022-09-01T08:28:34.104Z,99144.78
2022-09-01T08:31:37.072Z,99147.19
2022-09-01T08:34:40.021Z,99148.84
2022-09-01T08:37:43.726Z,99153.63
2022-09-01T08:40:56.085Z,99149.28
2022-09-01T08:44:05.030Z,99144.50
2022-09-01T08:47:12.939Z,99156.13
2022-09-01T08:50:20.753Z,99149.63
2022-09-01T08:53:26.798Z,99153.91
2022-09-01T08:56:31.122Z,99149.59
2022-09-01T08:59:34.140Z,99145.19
2022-09-01T09:02:42.210Z,99146.78
2022-09-01T09:05:58.738Z,99147.75
2022-09-01T09:09:04.807Z,99152.50
2022-09-01T09:12:16.530Z,99154.91
2022-09-01T09:15:23.715Z,99157.47
2022-09-01T09:18:39.600Z,99156.91
2022-09-01T09:21:44.519Z,99158.47
2022-09-01T09:24:50.427Z,99166.41
2022-09-01T09:28:02.794Z,99153.16
2022-09-01T09:31:24.343Z,99151.41
2022-09-01T09:34:34.772Z,99155.28
2022-09-01T09:37:37.647Z,99155.66
2022-09-01T09:41:07.543Z,99144.47
2022-09-01T09:44:08.491Z,99142.53
2022-09-01T09:47:43.708Z,99146.81
2022-09-01T09:50:47.170Z,99159.53
2022-09-01T09:53:51.208Z,99151.28
2022-09-01T09:57:11.750Z,99140.56
2022-09-01T10:00:23.800Z,99147.38
2022-09-01T10:03:36.391Z,99149.88
2022-09-01T10:06:42.378Z,99141.56
2022-09-01T10:09:46.552Z,99154.75
2022-09-01T10:12:49.431Z,99152.44
2022-09-01T10:15:55.161Z,99152.75
2022-09-01T10:19:00.872Z,99140.16
2022-09-01T10:22:03.909Z,99143.00
2022-09-01T10:25:10.486Z,99144.41
2022-09-01T10:28:20.972Z,99146.72
2022-09-01T10:31:32.212Z,99144.66
2022-09-01T10:34:37.510Z,99157.94
2022-09-01T10:37:41.562Z,99152.63
2022-09-01T10:40:50.025Z,99147.53
2022-09-01T10:43:53.169Z,99135.53
2022-09-01T10:47:01.790Z,99140.38
2022-09-01T10:50:10.167Z,99136.28
2022-09-01T10:53:34.751Z,99135.28
2022-09-01T10:56:43.704Z,99135.50
2022-09-01T10:59:56.409Z,99131.84
2022-09-01T11:03:31.628Z,99130.56
2022-09-01T11:10:33.661Z,99135.50
2022-09-01T11:13:38.889Z,99137.91
2022-09-01T11:16:50.124Z,99137.09
2022-09-01T11:19:58.391Z,99139.75
2022-09-01T11:23:05.526Z,99130.09
2022-09-01T11:29:57.090Z,99136.66
2022-09-01T11:33:03.438Z,99131.75
2022-09-01T11:36:07.973Z,99141.03
2022-09-01T11:39:30.230Z,99134.69
2022-09-01T11:42:37.924Z,99135.50
2022-09-01T11:45:46.496Z,99135.22
2022-09-01T11:48:51.774Z,99131.78
2022-09-01T11:51:55.214Z,99121.84
2022-09-01T11:54:58.700Z,99122.47
2022-09-01T11:58:01.925Z,99126.78
2022-09-01T12:01:15.103Z,99121.66
2022-09-01T12:04:23.320Z,99111.31
2022-09-01T12:07:31.634Z,99118.06
2022-09-01T12:10:35.202Z,99112.09
2022-09-01T12:13:39.480Z,99104.91
2022-09-01T12:16:43.777Z,99111.75
2022-09-01T12:19:46.628Z,99107.44
2022-09-01T12:22:51.808Z,99111.47
2022-09-01T12:25:56.046Z,99112.25
2022-09-01T12:28:59.437Z,99103.88
2022-09-01T12:32:04.079Z,99107.53
2022-09-01T12:35:15.438Z,99120.78
2022-09-01T12:38:23.260Z,99117.47
2022-09-01T12:41:36.351Z,99107.28
2022-09-01T12:44:47.208Z,99102.28
2022-09-01T12:47:54.051Z,99100.47
2022-09-01T12:50:57.794Z,99112.78
2022-09-01T12:54:04.832Z,99108.19
2022-09-01T12:57:07.924Z,99105.31
2022-09-01T13:00:18.160Z,99095.59
2022-09-01T13:03:23.570Z,99091.41
2022-09-01T13:06:27.378Z,99099.53
2022-09-01T13:09:30.312Z,99110.16
2022-09-01T13:12:33.099Z,99112.22
2022-09-01T13:15:37.245Z,99101.88
2022-09-01T13:22:08.290Z,99098.91
2022-09-01T13:25:11.554Z,99108.09
2022-09-01T13:28:15.207Z,99109.47
2022-09-01T13:31:34.425Z,99106.34
2022-09-01T13:34:41.029Z,99105.09
2022-09-01T13:37:43.928Z,99102.41
2022-09-01T13:40:49.534Z,99093.22
2022-09-01T13:43:52.591Z,99089.25
2022-09-01T13:50:23.945Z,99101.75
2022-09-01T13:53:27.436Z,99093.22
2022-09-01T13:56:30.326Z,99093.31
2022-09-01T13:59:33.299Z,99100.09
2022-09-01T14:02:37.000Z,99108.19
2022-09-01T14:05:42.943Z,99102.06
2022-09-01T14:08:45.819Z,99097.19
2022-09-01T14:11:48.628Z,99108.34
2022-09-01T14:18:16.432Z,99113.53
2022-09-01T14:21:20.981Z,99105.56
2022-09-01T14:24:23.855Z,99117.31
2022-09-01T14:27:26.822Z,99107.50
2022-09-01T14:30:31.665Z,99111.75
2022-09-01T14:33:34.712Z,99114.31
2022-09-01T14:36:39.492Z,99110.19
2022-09-01T14:39:42.411Z,99109.41
2022-09-01T14:42:49.240Z,99105.56
2022-09-01T14:46:05.051Z,99109.09
2022-09-01T14:49:08.337Z,99107.31
2022-09-01T14:52:14.499Z,99101.97
2022-09-01T14:55:17.318Z,99114.13
2022-09-01T14:58:20.144Z,99133.78
2022-09-01T15:01:34.404Z,99130.19
2022-09-01T15:04:37.912Z,99125.91
2022-09-01T15:07:43.123Z,99133.81
2022-09-01T15:10:46.129Z,99137.88
2022-09-01T15:13:52.647Z,99140.94
2022-09-01T15:16:56.368Z,99141.19
2022-09-01T15:20:20.414Z,99136.38
2022-09-01T15:23:25.844Z,99137.88
2022-09-01T15:26:29.125Z,99145.03
2022-09-01T15:29:34.173Z,99139.13
2022-09-01T15:32:36.983Z,99147.75
2022-09-01T15:35:39.832Z,99149.38
2022-09-01T15:38:44.272Z,99147.50
2022-09-01T15:41:47.072Z,99150.03
2022-09-01T15:44:50.027Z,99155.63
2022-09-01T15:47:52.847Z,99153.28
2022-09-01T15:51:02.907Z,99158.22
2022-09-01T15:54:08.240Z,99161.97
2022-09-01T15:57:12.135Z,99162.13
2022-09-01T16:00:15.583Z,99164.41
2022-09-01T16:03:19.153Z,99172.97
2022-09-01T16:06:22.024Z,99167.91
2022-09-01T16:09:26.880Z,99173.75
2022-09-01T16:12:31.221Z,99179.38
2022-09-01T16:15:35.442Z,99180.91
2022-09-01T16:18:41.726Z,99190.59
2022-09-01T16:21:50.447Z,99185.94
2022-09-01T16:24:56.240Z,99191.03
2022-09-01T16:28:02.861Z,99189.28
2022-09-01T16:31:08.159Z,99191.88
2022-09-01T16:34:14.770Z,99206.66
2022-09-01T16:37:24.420Z,99210.50
2022-09-01T16:40:35.506Z,99219.13
2022-09-01T16:43:43.095Z,99221.31
2022-09-01T16:46:51.676Z,99227.84
2022-09-01T16:50:05.318Z,99235.59
2022-09-01T16:53:15.619Z,99250.19
2022-09-01T16:56:24.613Z,99244.63
2022-09-01T16:59:33.895Z,99242.41
2022-09-01T17:02:43.421Z,99243.19
2022-09-01T17:05:51.617Z,99240.38
2022-09-01T17:09:04.252Z,99240.09
2022-09-01T17:12:17.300Z,99248.22
2022-09-01T17:15:21.212Z,99249.81
2022-09-01T17:18:29.871Z,99260.63
2022-09-01T17:21:37.637Z,99267.09
2022-09-01T17:24:42.763Z,99279.81
2022-09-01T17:27:53.071Z,99278.91
2022-09-01T17:31:00.622Z,99275.88
2022-09-01T17:34:09.900Z,99278.97
2022-09-01T17:37:20.706Z,99281.03
2022-09-01T17:40:28.811Z,99281.03
2022-09-01T17:43:46.192Z,99277.19
2022-09-01T17:46:57.212Z,99282.38
2022-09-01T17:50:02.598Z,99277.50
2022-09-01T17:53:10.276Z,99280.88
2022-09-01T17:56:21.417Z,99284.09
2022-09-01T17:59:30.230Z,99294.91
2022-09-01T18:02:50.186Z,99285.28
2022-09-01T18:05:57.539Z,99283.81
2022-09-01T18:09:00.413Z,99290.00
2022-09-01T18:12:06.615Z,99285.84
2022-09-01T18:15:12.332Z,99277.75
2022-09-01T18:18:27.423Z,99287.78
2022-09-01T18:21:33.071Z,99291.91
2022-09-01T18:24:43.274Z,99285.25
2022-09-01T18:27:51.241Z,99299.13
2022-09-01T18:30:59.374Z,99298.38
2022-09-01T18:34:09.030Z,99294.81
2022-09-01T18:37:19.796Z,99299.84
2022-09-01T18:40:28.200Z,99302.38
2022-09-01T18:43:34.447Z,99313.47
2022-09-01T18:46:49.553Z,99309.94
2022-09-01T18:49:56.776Z,99307.69
2022-09-01T18:53:08.931Z,99322.47
2022-09-01T18:56:19.596Z,99313.75
2022-09-01T18:59:46.996Z,99313.84
2022-09-01T19:03:08.816Z,99326.59
2022-09-01T19:06:23.454Z,99318.84
2022-09-01T19:09:30.478Z,99328.63
2022-09-01T19:12:39.871Z,99321.69
2022-09-01T19:15:48.479Z,99321.53
2022-09-01T19:18:57.170Z,99325.19
2022-09-01T19:22:02.570Z,99328.84
2022-09-01T19:25:20.803Z,99334.63
2022-09-01T19:28:31.483Z,99338.28
2022-09-01T19:31:38.920Z,99332.34
2022-09-01T19:34:44.817Z,99335.69
2022-09-01T19:37:51.285Z,99332.19
2022-09-01T19:40:55.366Z,99332.69
2022-09-01T19:44:01.442Z,99333.25
2022-09-01T19:47:06.192Z,99333.13
2022-09-01T19:50:15.007Z,99334.97
2022-09-01T19:56:44.851Z,99346.75
2022-09-01T20:00:00.348Z,99351.94
2022-09-01T20:03:08.193Z,99359.53
2022-09-01T20:06:13.106Z,99359.44
2022-09-01T20:09:17.867Z,99361.69
2022-09-01T20:12:26.817Z,99359.31
2022-09-01T20:15:34.231Z,99348.50
2022-09-01T20:18:40.127Z,99353.50
2022-09-01T20:21:44.714Z,99357.97
2022-09-01T20:24:47.867Z,99359.59
2022-09-01T20:27:56.206Z,99360.41
2022-09-01T20:31:07.614Z,99371.91
2022-09-01T20:34:15.291Z,99367.50
2022-09-01T20:37:22.002Z,99362.00
2022-09-01T20:40:27.490Z,99364.22
2022-09-01T20:43:35.818Z,99364.50
2022-09-01T20:46:39.494Z,99368.22
2022-09-01T20:49:42.327Z,99372.75
2022-09-01T20:52:50.340Z,99372.44
2022-09-01T20:55:56.378Z,99381.88
2022-09-01T20:59:02.258Z,99379.47
2022-09-01T21:02:09.721Z,99388.75
2022-09-01T21:05:20.481Z,99385.16
2022-09-01T21:08:31.035Z,99388.22
2022-09-01T21:11:43.298Z,99387.78
2022-09-01T21:14:52.064Z,99389.31
2022-09-01T21:18:03.206Z,99385.63
2022-09-01T21:21:10.825Z,99397.88
2022-09-01T21:24:13.775Z,99395.66
2022-09-01T21:27:19.612Z,99409.28
2022-09-01T21:30:24.226Z,99415.63
2022-09-01T21:33:28.927Z,99413.81
2022-09-01T21:36:31.898Z,99413.88
2022-09-01T21:39:34.699Z,99415.91
2022-09-01T21:42:39.881Z,99421.84
2022-09-01T21:45:44.289Z,99432.53
2022-09-01T21:48:47.164Z,99425.97
2022-09-01T21:51:50.779Z,99424.00
2022-09-01T21:54:53.738Z,99425.97
2022-09-01T21:57:56.572Z,99418.56
2022-09-01T22:01:02.328Z,99420.06
2022-09-01T22:04:05.695Z,99422.91
2022-09-01T22:07:17.004Z,99424.38
2022-09-01T22:10:21.801Z,99430.00
2022-09-01T22:13:25.242Z,99427.56
2022-09-01T22:16:29.534Z,99430.59
2022-09-01T22:19:34.043Z,99436.44
2022-09-01T22:22:37.177Z,99440.56
2022-09-01T22:25:42.054Z,99446.47
2022-09-01T22:28:44.854Z,99447.53
2022-09-01T22:31:49.287Z,99455.22
2022-09-01T22:34:52.145Z,99458.31
2022-09-01T22:37:54.972Z,99451.31
2022-09-01T22:40:59.616Z,99451.75
2022-09-01T22:44:02.599Z,99449.34
2022-09-01T22:47:07.302Z,99451.31
2022-09-01T22:50:10.942Z,99455.22
2022-09-01T22:53:15.257Z,99452.88
2022-09-01T22:56:20.436Z,99481.06
2022-09-01T22:59:23.314Z,99478.72
2022-09-01T23:02:28.588Z,99480.56
2022-09-01T23:05:32.115Z,99483.78
2022-09-01T23:08:35.184Z,99487.00
2022-09-01T23:11:38.051Z,99476.47
2022-09-01T23:14:40.919Z,99471.88
2022-09-01T23:17:45.045Z,99474.25
2022-09-01T23:20:47.855Z,99471.44
2022-09-01T23:23:58.293Z,99468.88
2022-09-01T23:27:01.836Z,99473.53
2022-09-01T23:30:05.135Z,99479.00
2022-09-01T23:33:09.307Z,99472.44
2022-09-01T23:36:13.304Z,99482.78
2022-09-01T23:39:16.072Z,99494.25
2022-09-01T23:42:18.876Z,99485.50
2022-09-01T23:45:21.687Z,99488.34
2022-09-01T23:48:26.391Z,99491.34
2022-09-01T23:51:29.407Z,99498.22
2022-09-01T23:54:32.209Z,99490.13
2022-09-01T23:57:35.260Z,99501.66
